Terminal Aerodrome Forecast
Issued by NWS

Home | Current Version | Previous Version | Graphics & Text | Print | Product List | Glossary On
Versions: 1 2 3 4 5 6 7 8 9 10 11 12 13 14 15 16 17 18 19 20 21
000
FTUS43 KMPX 220500
TAFAXN
TAF
KAXN 220520Z 2206/2306 15012KT 3SM BR OVC003
     FM220900 13014KT 1SM -DZ BR OVC002
     FM221700 12012KT 1 1/2SM -DZSN BR OVC004
     FM221900 12012KT 3/4SM -SN BR VV003
     FM230300 10010KT 1 1/2SM -SN BR OVC004=

USA.gov is the U.S. government's official web portal to all federal, state and local government web resources and services.